sensor_id;sensor_type;location;lat;lon;timestamp;P1;durP1;ratioP1;P2;durP2;ratioP2
26478;SDS011;14163;-26.142;27.992;2022-12-10T00:01:46;10.13;;;9.20;;
26478;SDS011;14163;-26.142;27.992;2022-12-10T00:04:17;11.30;;;10.13;;
26478;SDS011;14163;-26.142;27.992;2022-12-10T00:06:48;11.73;;;10.43;;
26478;SDS011;14163;-26.142;27.992;2022-12-10T00:09:18;10.90;;;9.80;;
26478;SDS011;14163;-26.142;27.992;2022-12-10T00:11:47;10.23;;;9.23;;
26478;SDS011;14163;-26.142;27.992;2022-12-10T00:14:16;10.80;;;9.73;;
26478;SDS011;14163;-26.142;27.992;2022-12-10T00:16:46;12.03;;;10.10;;
26478;SDS011;14163;-26.142;27.992;2022-12-10T00:19:15;10.40;;;9.23;;
26478;SDS011;14163;-26.142;27.992;2022-12-10T00:21:44;9.30;;;8.27;;
26478;SDS011;14163;-26.142;27.992;2022-12-10T00:24:15;9.43;;;8.50;;
26478;SDS011;14163;-26.142;27.992;2022-12-10T00:26:44;12.93;;;9.00;;
26478;SDS011;14163;-26.142;27.992;2022-12-10T00:29:13;9.00;;;8.10;;
26478;SDS011;14163;-26.142;27.992;2022-12-10T00:31:42;10.50;;;9.40;;
26478;SDS011;14163;-26.142;27.992;2022-12-10T00:34:11;11.17;;;8.93;;
26478;SDS011;14163;-26.142;27.992;2022-12-10T00:36:41;12.80;;;9.30;;
26478;SDS011;14163;-26.142;27.992;2022-12-10T00:39:11;13.57;;;9.30;;
26478;SDS011;14163;-26.142;27.992;2022-12-10T00:41:43;9.87;;;8.93;;
26478;SDS011;14163;-26.142;27.992;2022-12-10T00:44:13;10.23;;;9.10;;
26478;SDS011;14163;-26.142;27.992;2022-12-10T00:46:42;10.60;;;9.60;;
26478;SDS011;14163;-26.142;27.992;2022-12-10T00:49:11;10.90;;;9.80;;
26478;SDS011;14163;-26.142;27.992;2022-12-10T00:51:41;11.50;;;9.77;;
26478;SDS011;14163;-26.142;27.992;2022-12-10T00:54:10;11.70;;;9.77;;
26478;SDS011;14163;-26.142;27.992;2022-12-10T00:56:41;14.13;;;9.10;;
26478;SDS011;14163;-26.142;27.992;2022-12-10T00:59:10;10.37;;;9.30;;
26478;SDS011;14163;-26.142;27.992;2022-12-10T01:01:39;14.47;;;11.57;;
26478;SDS011;14163;-26.142;27.992;2022-12-10T01:04:12;11.70;;;10.60;;
26478;SDS011;14163;-26.142;27.992;2022-12-10T01:06:43;15.20;;;11.70;;
26478;SDS011;14163;-26.142;27.992;2022-12-10T01:09:14;12.40;;;11.13;;
26478;SDS011;14163;-26.142;27.992;2022-12-10T01:11:47;13.07;;;11.77;;
26478;SDS011;14163;-26.142;27.992;2022-12-10T01:14:18;11.30;;;10.10;;
26478;SDS011;14163;-26.142;27.992;2022-12-10T01:16:49;10.57;;;9.57;;
26478;SDS011;14163;-26.142;27.992;2022-12-10T01:19:21;11.13;;;8.90;;
26478;SDS011;14163;-26.142;27.992;2022-12-10T01:21:50;9.07;;;8.00;;
26478;SDS011;14163;-26.142;27.992;2022-12-10T01:24:20;9.77;;;8.77;;
26478;SDS011;14163;-26.142;27.992;2022-12-10T01:26:51;8.17;;;7.37;;
26478;SDS011;14163;-26.142;27.992;2022-12-10T01:29:21;8.87;;;8.10;;
26478;SDS011;14163;-26.142;27.992;2022-12-10T01:31:51;8.90;;;7.33;;
26478;SDS011;14163;-26.142;27.992;2022-12-10T01:34:21;8.43;;;7.53;;
26478;SDS011;14163;-26.142;27.992;2022-12-10T01:36:52;11.03;;;7.57;;
26478;SDS011;14163;-26.142;27.992;2022-12-10T01:39:22;7.47;;;6.77;;
26478;SDS011;14163;-26.142;27.992;2022-12-10T01:41:54;7.00;;;6.40;;
26478;SDS011;14163;-26.142;27.992;2022-12-10T01:47:28;8.83;;;7.23;;
26478;SDS011;14163;-26.142;27.992;2022-12-10T01:49:57;8.13;;;7.33;;
26478;SDS011;14163;-26.142;27.992;2022-12-10T01:52:26;8.77;;;7.77;;
26478;SDS011;14163;-26.142;27.992;2022-12-10T01:54:56;9.87;;;8.90;;
26478;SDS011;14163;-26.142;27.992;2022-12-10T01:57:27;15.37;;;10.20;;
26478;SDS011;14163;-26.142;27.992;2022-12-10T01:59:57;11.83;;;10.07;;
26478;SDS011;14163;-26.142;27.992;2022-12-10T02:02:30;12.80;;;10.50;;
26478;SDS011;14163;-26.142;27.992;2022-12-10T02:05:15;10.77;;;9.70;;
26478;SDS011;14163;-26.142;27.992;2022-12-10T02:07:54;10.23;;;8.20;;
26478;SDS011;14163;-26.142;27.992;2022-12-10T02:10:34;10.00;;;9.10;;
26478;SDS011;14163;-26.142;27.992;2022-12-10T02:13:14;11.53;;;8.17;;
26478;SDS011;14163;-26.142;27.992;2022-12-10T02:15:49;10.90;;;8.50;;
26478;SDS011;14163;-26.142;27.992;2022-12-10T02:18:21;8.50;;;7.70;;
26478;SDS011;14163;-26.142;27.992;2022-12-10T02:20:54;9.20;;;7.10;;
26478;SDS011;14163;-26.142;27.992;2022-12-10T02:23:30;12.47;;;7.53;;
26478;SDS011;14163;-26.142;27.992;2022-12-10T02:26:03;7.97;;;7.17;;
26478;SDS011;14163;-26.142;27.992;2022-12-10T02:28:42;10.97;;;7.93;;
26478;SDS011;14163;-26.142;27.992;2022-12-10T02:31:20;7.70;;;7.10;;
26478;SDS011;14163;-26.142;27.992;2022-12-10T02:33:53;8.27;;;7.43;;
26478;SDS011;14163;-26.142;27.992;2022-12-10T02:36:25;7.13;;;6.53;;
26478;SDS011;14163;-26.142;27.992;2022-12-10T02:38:57;8.00;;;7.20;;
26478;SDS011;14163;-26.142;27.992;2022-12-10T02:41:30;8.33;;;7.57;;
26478;SDS011;14163;-26.142;27.992;2022-12-10T02:44:03;11.47;;;6.80;;
26478;SDS011;14163;-26.142;27.992;2022-12-10T02:46:36;7.80;;;7.10;;
26478;SDS011;14163;-26.142;27.992;2022-12-10T02:49:07;7.50;;;6.80;;
26478;SDS011;14163;-26.142;27.992;2022-12-10T02:51:39;8.67;;;6.77;;
26478;SDS011;14163;-26.142;27.992;2022-12-10T02:57:08;9.23;;;7.30;;
26478;SDS011;14163;-26.142;27.992;2022-12-10T02:59:47;7.73;;;6.93;;
26478;SDS011;14163;-26.142;27.992;2022-12-10T03:02:31;9.17;;;6.63;;
26478;SDS011;14163;-26.142;27.992;2022-12-10T03:05:12;9.47;;;7.23;;
26478;SDS011;14163;-26.142;27.992;2022-12-10T03:07:46;7.17;;;6.57;;
26478;SDS011;14163;-26.142;27.992;2022-12-10T03:10:21;8.80;;;7.30;;
26478;SDS011;14163;-26.142;27.992;2022-12-10T03:12:55;7.43;;;6.70;;
26478;SDS011;14163;-26.142;27.992;2022-12-10T03:15:27;7.43;;;6.67;;
26478;SDS011;14163;-26.142;27.992;2022-12-10T03:18:03;7.43;;;6.70;;
26478;SDS011;14163;-26.142;27.992;2022-12-10T03:20:34;7.70;;;6.97;;
26478;SDS011;14163;-26.142;27.992;2022-12-10T03:23:08;11.00;;;7.60;;
26478;SDS011;14163;-26.142;27.992;2022-12-10T03:25:39;7.90;;;7.13;;
26478;SDS011;14163;-26.142;27.992;2022-12-10T03:28:08;8.10;;;7.40;;
26478;SDS011;14163;-26.142;27.992;2022-12-10T03:30:38;11.17;;;7.73;;
26478;SDS011;14163;-26.142;27.992;2022-12-10T03:33:10;8.23;;;6.90;;
26478;SDS011;14163;-26.142;27.992;2022-12-10T03:35:40;7.63;;;6.93;;
26478;SDS011;14163;-26.142;27.992;2022-12-10T03:38:10;8.70;;;7.80;;
26478;SDS011;14163;-26.142;27.992;2022-12-10T03:40:40;8.53;;;7.73;;
26478;SDS011;14163;-26.142;27.992;2022-12-10T03:43:11;7.90;;;7.20;;
26478;SDS011;14163;-26.142;27.992;2022-12-10T03:45:41;8.13;;;7.03;;
26478;SDS011;14163;-26.142;27.992;2022-12-10T03:48:11;7.90;;;6.70;;
26478;SDS011;14163;-26.142;27.992;2022-12-10T03:50:41;7.20;;;6.50;;
26478;SDS011;14163;-26.142;27.992;2022-12-10T03:53:10;9.07;;;7.60;;
26478;SDS011;14163;-26.142;27.992;2022-12-10T03:55:39;7.70;;;6.87;;
26478;SDS011;14163;-26.142;27.992;2022-12-10T03:58:08;9.83;;;6.90;;
26478;SDS011;14163;-26.142;27.992;2022-12-10T04:00:37;7.87;;;7.07;;
26478;SDS011;14163;-26.142;27.992;2022-12-10T04:03:06;6.80;;;6.23;;
26478;SDS011;14163;-26.142;27.992;2022-12-10T04:05:38;7.57;;;6.77;;
26478;SDS011;14163;-26.142;27.992;2022-12-10T07:59:21;6.07;;;5.57;;
26478;SDS011;14163;-26.142;27.992;2022-12-10T08:01:51;8.57;;;6.40;;
26478;SDS011;14163;-26.142;27.992;2022-12-10T08:04:20;9.40;;;6.80;;
26478;SDS011;14163;-26.142;27.992;2022-12-10T08:06:49;9.23;;;6.70;;
26478;SDS011;14163;-26.142;27.992;2022-12-10T08:09:21;6.20;;;5.70;;
26478;SDS011;14163;-26.142;27.992;2022-12-10T08:11:50;6.33;;;5.73;;
26478;SDS011;14163;-26.142;27.992;2022-12-10T08:14:22;8.30;;;5.80;;
26478;SDS011;14163;-26.142;27.992;2022-12-10T08:16:51;5.97;;;5.47;;
26478;SDS011;14163;-26.142;27.992;2022-12-10T08:19:20;7.73;;;5.03;;
26478;SDS011;14163;-26.142;27.992;2022-12-10T08:21:49;5.50;;;5.10;;
26478;SDS011;14163;-26.142;27.992;2022-12-10T08:24:19;6.53;;;5.07;;
26478;SDS011;14163;-26.142;27.992;2022-12-10T08:26:48;7.63;;;5.43;;
26478;SDS011;14163;-26.142;27.992;2022-12-10T08:29:17;6.20;;;5.10;;
26478;SDS011;14163;-26.142;27.992;2022-12-10T08:31:48;9.20;;;6.80;;
26478;SDS011;14163;-26.142;27.992;2022-12-10T08:34:18;6.17;;;5.63;;
26478;SDS011;14163;-26.142;27.992;2022-12-10T08:36:47;9.20;;;6.70;;
26478;SDS011;14163;-26.142;27.992;2022-12-10T08:39:16;5.20;;;4.80;;
26478;SDS011;14163;-26.142;27.992;2022-12-10T08:41:45;5.50;;;4.93;;
26478;SDS011;14163;-26.142;27.992;2022-12-10T08:44:15;4.97;;;4.57;;
26478;SDS011;14163;-26.142;27.992;2022-12-10T08:46:44;5.60;;;5.10;;
26478;SDS011;14163;-26.142;27.992;2022-12-10T08:49:15;5.80;;;5.30;;
26478;SDS011;14163;-26.142;27.992;2022-12-10T08:51:44;8.90;;;8.07;;
26478;SDS011;14163;-26.142;27.992;2022-12-10T08:54:13;5.53;;;5.10;;
26478;SDS011;14163;-26.142;27.992;2022-12-10T08:56:42;5.80;;;5.30;;
26478;SDS011;14163;-26.142;27.992;2022-12-10T08:59:12;8.70;;;7.80;;
26478;SDS011;14163;-26.142;27.992;2022-12-10T09:01:41;8.27;;;7.07;;
26478;SDS011;14163;-26.142;27.992;2022-12-10T09:04:10;7.53;;;6.53;;
26478;SDS011;14163;-26.142;27.992;2022-12-10T09:06:43;5.93;;;5.43;;
26478;SDS011;14163;-26.142;27.992;2022-12-10T09:09:12;6.80;;;6.13;;
26478;SDS011;14163;-26.142;27.992;2022-12-10T09:11:41;8.10;;;6.67;;
26478;SDS011;14163;-26.142;27.992;2022-12-10T09:14:11;5.67;;;4.93;;
26478;SDS011;14163;-26.142;27.992;2022-12-10T09:16:40;10.13;;;9.20;;
26478;SDS011;14163;-26.142;27.992;2022-12-10T09:19:09;8.83;;;8.03;;
26478;SDS011;14163;-26.142;27.992;2022-12-10T09:21:38;10.10;;;9.23;;
26478;SDS011;14163;-26.142;27.992;2022-12-10T09:24:10;9.10;;;8.30;;
26478;SDS011;14163;-26.142;27.992;2022-12-10T09:26:39;7.33;;;6.13;;
26478;SDS011;14163;-26.142;27.992;2022-12-10T09:29:08;7.33;;;6.70;;
26478;SDS011;14163;-26.142;27.992;2022-12-10T09:31:37;5.87;;;5.37;;
26478;SDS011;14163;-26.142;27.992;2022-12-10T09:34:06;6.57;;;5.97;;
26478;SDS011;14163;-26.142;27.992;2022-12-10T09:36:35;8.30;;;6.23;;
26478;SDS011;14163;-26.142;27.992;2022-12-10T09:39:05;8.10;;;6.20;;
26478;SDS011;14163;-26.142;27.992;2022-12-10T09:41:39;6.90;;;6.30;;
26478;SDS011;14163;-26.142;27.992;2022-12-10T09:44:31;6.77;;;6.07;;
26478;SDS011;14163;-26.142;27.992;2022-12-10T09:47:09;7.27;;;6.60;;
26478;SDS011;14163;-26.142;27.992;2022-12-10T09:49:42;7.40;;;6.40;;
26478;SDS011;14163;-26.142;27.992;2022-12-10T09:52:22;7.13;;;6.50;;
26478;SDS011;14163;-26.142;27.992;2022-12-10T09:54:54;8.27;;;7.20;;
26478;SDS011;14163;-26.142;27.992;2022-12-10T09:57:27;7.20;;;6.60;;
26478;SDS011;14163;-26.142;27.992;2022-12-10T10:00:00;7.20;;;6.63;;
26478;SDS011;14163;-26.142;27.992;2022-12-10T10:02:33;7.03;;;6.53;;
26478;SDS011;14163;-26.142;27.992;2022-12-10T10:05:06;7.90;;;7.10;;
26478;SDS011;14163;-26.142;27.992;2022-12-10T10:07:42;7.87;;;6.57;;
26478;SDS011;14163;-26.142;27.992;2022-12-10T10:10:18;7.13;;;6.63;;
26478;SDS011;14163;-26.142;27.992;2022-12-10T10:12:53;6.77;;;6.17;;
26478;SDS011;14163;-26.142;27.992;2022-12-10T10:15:26;7.00;;;6.40;;
26478;SDS011;14163;-26.142;27.992;2022-12-10T10:18:00;6.87;;;6.37;;
26478;SDS011;14163;-26.142;27.992;2022-12-10T10:20:32;9.93;;;9.00;;
26478;SDS011;14163;-26.142;27.992;2022-12-10T10:23:02;7.67;;;6.87;;
26478;SDS011;14163;-26.142;27.992;2022-12-10T10:25:31;6.90;;;6.20;;
26478;SDS011;14163;-26.142;27.992;2022-12-10T10:28:02;6.73;;;6.23;;
26478;SDS011;14163;-26.142;27.992;2022-12-10T10:30:31;7.13;;;6.47;;
26478;SDS011;14163;-26.142;27.992;2022-12-10T10:33:01;7.17;;;6.67;;
26478;SDS011;14163;-26.142;27.992;2022-12-10T10:35:42;8.50;;;7.80;;
26478;SDS011;14163;-26.142;27.992;2022-12-10T10:38:16;8.33;;;7.60;;
26478;SDS011;14163;-26.142;27.992;2022-12-10T10:40:49;8.73;;;7.83;;
26478;SDS011;14163;-26.142;27.992;2022-12-10T10:43:25;10.30;;;7.80;;
26478;SDS011;14163;-26.142;27.992;2022-12-10T10:45:56;9.10;;;7.43;;
26478;SDS011;14163;-26.142;27.992;2022-12-10T10:48:30;8.13;;;6.77;;
26478;SDS011;14163;-26.142;27.992;2022-12-10T10:51:05;7.80;;;7.20;;
26478;SDS011;14163;-26.142;27.992;2022-12-10T10:53:45;8.27;;;7.67;;
26478;SDS011;14163;-26.142;27.992;2022-12-10T10:56:16;8.70;;;7.90;;
26478;SDS011;14163;-26.142;27.992;2022-12-10T10:58:50;7.17;;;6.67;;
26478;SDS011;14163;-26.142;27.992;2022-12-10T11:01:24;8.13;;;7.30;;
26478;SDS011;14163;-26.142;27.992;2022-12-10T11:03:55;7.93;;;6.93;;
26478;SDS011;14163;-26.142;27.992;2022-12-10T11:06:26;6.73;;;6.17;;
26478;SDS011;14163;-26.142;27.992;2022-12-10T11:08:57;9.73;;;8.93;;
26478;SDS011;14163;-26.142;27.992;2022-12-10T11:11:31;7.90;;;7.20;;
26478;SDS011;14163;-26.142;27.992;2022-12-10T11:14:23;8.03;;;7.37;;
26478;SDS011;14163;-26.142;27.992;2022-12-10T11:16:59;7.50;;;6.77;;
26478;SDS011;14163;-26.142;27.992;2022-12-10T11:19:31;7.17;;;6.57;;
26478;SDS011;14163;-26.142;27.992;2022-12-10T11:22:14;8.27;;;6.80;;
26478;SDS011;14163;-26.142;27.992;2022-12-10T11:24:46;9.57;;;6.57;;
26478;SDS011;14163;-26.142;27.992;2022-12-10T11:27:17;7.30;;;6.67;;
26478;SDS011;14163;-26.142;27.992;2022-12-10T11:30:11;8.03;;;7.30;;
26478;SDS011;14163;-26.142;27.992;2022-12-10T14:21:47;8.30;;;7.60;;
26478;SDS011;14163;-26.142;27.992;2022-12-10T14:24:26;8.40;;;7.60;;
26478;SDS011;14163;-26.142;27.992;2022-12-10T14:26:58;8.70;;;8.10;;
26478;SDS011;14163;-26.142;27.992;2022-12-10T14:29:28;9.43;;;8.47;;
26478;SDS011;14163;-26.142;27.992;2022-12-10T14:31:58;9.80;;;8.70;;
26478;SDS011;14163;-26.142;27.992;2022-12-10T14:34:27;12.67;;;11.77;;
26478;SDS011;14163;-26.142;27.992;2022-12-10T14:37:00;13.00;;;12.00;;
26478;SDS011;14163;-26.142;27.992;2022-12-10T14:39:32;14.27;;;13.03;;
26478;SDS011;14163;-26.142;27.992;2022-12-10T14:42:05;14.47;;;13.33;;
26478;SDS011;14163;-26.142;27.992;2022-12-10T14:44:41;15.63;;;13.97;;
26478;SDS011;14163;-26.142;27.992;2022-12-10T14:47:13;14.80;;;13.60;;
26478;SDS011;14163;-26.142;27.992;2022-12-10T14:49:44;15.23;;;13.83;;
26478;SDS011;14163;-26.142;27.992;2022-12-10T14:52:17;14.87;;;13.60;;
26478;SDS011;14163;-26.142;27.992;2022-12-10T14:54:47;15.70;;;14.40;;
26478;SDS011;14163;-26.142;27.992;2022-12-10T14:57:18;17.67;;;15.93;;
26478;SDS011;14163;-26.142;27.992;2022-12-10T14:59:52;16.17;;;14.97;;
26478;SDS011;14163;-26.142;27.992;2022-12-10T15:02:27;16.40;;;15.20;;
26478;SDS011;14163;-26.142;27.992;2022-12-10T15:04:58;16.83;;;15.63;;
26478;SDS011;14163;-26.142;27.992;2022-12-10T15:07:32;18.23;;;16.73;;
26478;SDS011;14163;-26.142;27.992;2022-12-10T15:10:04;17.87;;;16.37;;
26478;SDS011;14163;-26.142;27.992;2022-12-10T15:12:37;17.90;;;16.50;;
26478;SDS011;14163;-26.142;27.992;2022-12-10T15:15:12;18.27;;;16.77;;
26478;SDS011;14163;-26.142;27.992;2022-12-10T15:17:45;20.20;;;18.60;;
26478;SDS011;14163;-26.142;27.992;2022-12-10T15:20:23;18.70;;;17.10;;
26478;SDS011;14163;-26.142;27.992;2022-12-10T15:23:05;17.47;;;15.97;;
26478;SDS011;14163;-26.142;27.992;2022-12-10T15:25:41;17.27;;;15.83;;
26478;SDS011;14163;-26.142;27.992;2022-12-10T15:28:22;17.37;;;16.07;;
26478;SDS011;14163;-26.142;27.992;2022-12-10T15:30:55;17.57;;;16.13;;
26478;SDS011;14163;-26.142;27.992;2022-12-10T15:33:29;16.97;;;15.57;;
26478;SDS011;14163;-26.142;27.992;2022-12-10T15:36:00;16.67;;;15.37;;
26478;SDS011;14163;-26.142;27.992;2022-12-10T15:38:31;17.73;;;16.43;;
26478;SDS011;14163;-26.142;27.992;2022-12-10T15:44:14;18.40;;;16.90;;
26478;SDS011;14163;-26.142;27.992;2022-12-10T15:46:49;16.77;;;15.37;;
26478;SDS011;14163;-26.142;27.992;2022-12-10T15:49:25;16.07;;;14.87;;
26478;SDS011;14163;-26.142;27.992;2022-12-10T15:51:54;16.90;;;15.40;;
26478;SDS011;14163;-26.142;27.992;2022-12-10T15:54:26;17.87;;;16.17;;
26478;SDS011;14163;-26.142;27.992;2022-12-10T15:56:59;16.87;;;15.47;;
26478;SDS011;14163;-26.142;27.992;2022-12-10T15:59:34;16.57;;;15.37;;
26478;SDS011;14163;-26.142;27.992;2022-12-10T16:02:03;16.23;;;14.93;;
26478;SDS011;14163;-26.142;27.992;2022-12-10T16:04:51;15.23;;;14.10;;
26478;SDS011;14163;-26.142;27.992;2022-12-10T16:07:21;15.33;;;14.23;;
26478;SDS011;14163;-26.142;27.992;2022-12-10T16:09:52;17.23;;;15.93;;
26478;SDS011;14163;-26.142;27.992;2022-12-10T16:12:21;15.37;;;14.07;;
26478;SDS011;14163;-26.142;27.992;2022-12-10T16:14:51;14.90;;;13.50;;
26478;SDS011;14163;-26.142;27.992;2022-12-10T16:17:25;12.80;;;11.90;;
26478;SDS011;14163;-26.142;27.992;2022-12-10T16:19:55;12.10;;;11.00;;
26478;SDS011;14163;-26.142;27.992;2022-12-10T16:22:26;11.90;;;10.90;;
26478;SDS011;14163;-26.142;27.992;2022-12-10T16:24:56;12.20;;;11.10;;
26478;SDS011;14163;-26.142;27.992;2022-12-10T16:27:26;11.53;;;10.73;;
26478;SDS011;14163;-26.142;27.992;2022-12-10T16:29:58;12.47;;;11.57;;
26478;SDS011;14163;-26.142;27.992;2022-12-10T16:32:27;12.73;;;11.60;;
26478;SDS011;14163;-26.142;27.992;2022-12-10T16:34:56;14.47;;;13.07;;
26478;SDS011;14163;-26.142;27.992;2022-12-10T16:37:26;13.17;;;12.17;;
26478;SDS011;14163;-26.142;27.992;2022-12-10T16:39:57;14.80;;;13.60;;
26478;SDS011;14163;-26.142;27.992;2022-12-10T16:42:26;14.67;;;13.50;;
26478;SDS011;14163;-26.142;27.992;2022-12-10T16:44:55;14.27;;;13.07;;
26478;SDS011;14163;-26.142;27.992;2022-12-10T16:47:24;12.47;;;11.47;;
26478;SDS011;14163;-26.142;27.992;2022-12-10T16:49:54;13.53;;;12.43;;
26478;SDS011;14163;-26.142;27.992;2022-12-10T16:52:23;14.57;;;13.27;;
26478;SDS011;14163;-26.142;27.992;2022-12-10T16:54:52;13.87;;;12.77;;
26478;SDS011;14163;-26.142;27.992;2022-12-10T16:57:24;13.50;;;12.37;;
26478;SDS011;14163;-26.142;27.992;2022-12-10T16:59:54;13.73;;;12.63;;
26478;SDS011;14163;-26.142;27.992;2022-12-10T17:02:23;12.83;;;11.53;;
26478;SDS011;14163;-26.142;27.992;2022-12-10T17:04:52;13.90;;;12.60;;
26478;SDS011;14163;-26.142;27.992;2022-12-10T17:07:21;13.57;;;12.30;;
26478;SDS011;14163;-26.142;27.992;2022-12-10T17:09:50;13.93;;;12.63;;
26478;SDS011;14163;-26.142;27.992;2022-12-10T17:12:19;15.00;;;13.47;;
26478;SDS011;14163;-26.142;27.992;2022-12-10T17:14:50;14.40;;;13.00;;
26478;SDS011;14163;-26.142;27.992;2022-12-10T17:17:20;15.00;;;13.80;;
26478;SDS011;14163;-26.142;27.992;2022-12-10T17:19:49;15.67;;;14.20;;
26478;SDS011;14163;-26.142;27.992;2022-12-10T17:22:18;17.13;;;15.70;;
26478;SDS011;14163;-26.142;27.992;2022-12-10T17:24:48;18.33;;;16.63;;
26478;SDS011;14163;-26.142;27.992;2022-12-10T17:27:18;17.13;;;15.57;;
26478;SDS011;14163;-26.142;27.992;2022-12-10T17:29:50;16.00;;;14.70;;
26478;SDS011;14163;-26.142;27.992;2022-12-10T17:32:20;16.87;;;15.10;;
26478;SDS011;14163;-26.142;27.992;2022-12-10T17:34:50;17.53;;;16.10;;
26478;SDS011;14163;-26.142;27.992;2022-12-10T17:37:19;17.63;;;16.10;;
26478;SDS011;14163;-26.142;27.992;2022-12-10T17:39:48;17.00;;;15.50;;
26478;SDS011;14163;-26.142;27.992;2022-12-10T17:42:18;18.83;;;16.83;;
26478;SDS011;14163;-26.142;27.992;2022-12-10T17:44:47;18.67;;;16.80;;
26478;SDS011;14163;-26.142;27.992;2022-12-10T17:47:19;19.00;;;17.03;;
26478;SDS011;14163;-26.142;27.992;2022-12-10T17:49:50;17.63;;;16.03;;
26478;SDS011;14163;-26.142;27.992;2022-12-10T17:52:19;18.90;;;17.00;;
26478;SDS011;14163;-26.142;27.992;2022-12-10T17:54:48;18.30;;;16.60;;
26478;SDS011;14163;-26.142;27.992;2022-12-10T17:57:18;19.07;;;17.07;;
26478;SDS011;14163;-26.142;27.992;2022-12-10T17:59:52;18.67;;;16.87;;
26478;SDS011;14163;-26.142;27.992;2022-12-10T18:02:21;19.00;;;17.40;;
26478;SDS011;14163;-26.142;27.992;2022-12-10T18:04:50;19.00;;;17.30;;
26478;SDS011;14163;-26.142;27.992;2022-12-10T18:07:19;18.10;;;16.50;;
26478;SDS011;14163;-26.142;27.992;2022-12-10T18:09:48;17.10;;;15.60;;
26478;SDS011;14163;-26.142;27.992;2022-12-10T18:12:18;18.63;;;16.87;;
26478;SDS011;14163;-26.142;27.992;2022-12-10T18:14:47;18.70;;;16.90;;
26478;SDS011;14163;-26.142;27.992;2022-12-10T18:17:17;20.87;;;17.20;;
26478;SDS011;14163;-26.142;27.992;2022-12-10T18:19:46;19.77;;;18.07;;
26478;SDS011;14163;-26.142;27.992;2022-12-10T18:22:16;19.83;;;18.03;;
26478;SDS011;14163;-26.142;27.992;2022-12-10T18:24:45;19.77;;;17.97;;
26478;SDS011;14163;-26.142;27.992;2022-12-10T18:27:14;21.63;;;19.63;;
26478;SDS011;14163;-26.142;27.992;2022-12-10T18:29:45;21.53;;;19.57;;
26478;SDS011;14163;-26.142;27.992;2022-12-10T18:32:15;21.13;;;19.07;;
26478;SDS011;14163;-26.142;27.992;2022-12-10T18:34:45;21.13;;;18.93;;
26478;SDS011;14163;-26.142;27.992;2022-12-10T18:37:14;20.53;;;18.70;;
26478;SDS011;14163;-26.142;27.992;2022-12-10T18:39:44;17.83;;;16.20;;
26478;SDS011;14163;-26.142;27.992;2022-12-10T18:42:14;17.63;;;15.80;;
26478;SDS011;14163;-26.142;27.992;2022-12-10T18:44:43;17.10;;;15.40;;
26478;SDS011;14163;-26.142;27.992;2022-12-10T18:47:12;18.97;;;17.10;;
26478;SDS011;14163;-26.142;27.992;2022-12-10T18:49:43;18.53;;;17.03;;
26478;SDS011;14163;-26.142;27.992;2022-12-10T18:52:12;15.77;;;14.57;;
26478;SDS011;14163;-26.142;27.992;2022-12-10T18:54:42;16.00;;;14.60;;
26478;SDS011;14163;-26.142;27.992;2022-12-10T18:57:12;18.60;;;16.73;;
26478;SDS011;14163;-26.142;27.992;2022-12-10T18:59:41;17.40;;;16.00;;
26478;SDS011;14163;-26.142;27.992;2022-12-10T19:02:11;18.17;;;16.57;;
26478;SDS011;14163;-26.142;27.992;2022-12-10T19:04:40;17.63;;;16.27;;
26478;SDS011;14163;-26.142;27.992;2022-12-10T19:07:11;17.13;;;15.53;;
26478;SDS011;14163;-26.142;27.992;2022-12-10T19:09:40;17.17;;;15.77;;
26478;SDS011;14163;-26.142;27.992;2022-12-10T19:12:10;16.50;;;15.20;;
26478;SDS011;14163;-26.142;27.992;2022-12-10T19:14:39;17.27;;;15.60;;
26478;SDS011;14163;-26.142;27.992;2022-12-10T19:17:08;18.10;;;16.50;;
26478;SDS011;14163;-26.142;27.992;2022-12-10T19:19:38;17.70;;;16.20;;
26478;SDS011;14163;-26.142;27.992;2022-12-10T19:22:09;17.53;;;16.03;;
26478;SDS011;14163;-26.142;27.992;2022-12-10T19:24:38;17.70;;;16.00;;
26478;SDS011;14163;-26.142;27.992;2022-12-10T19:27:08;17.17;;;15.70;;
26478;SDS011;14163;-26.142;27.992;2022-12-10T19:29:37;26.33;;;17.17;;
26478;SDS011;14163;-26.142;27.992;2022-12-10T19:32:06;19.60;;;17.90;;
26478;SDS011;14163;-26.142;27.992;2022-12-10T19:34:35;17.70;;;15.80;;
26478;SDS011;14163;-26.142;27.992;2022-12-10T19:37:05;17.53;;;15.77;;
26478;SDS011;14163;-26.142;27.992;2022-12-10T19:39:38;18.47;;;16.80;;
26478;SDS011;14163;-26.142;27.992;2022-12-10T19:42:07;17.60;;;16.00;;
26478;SDS011;14163;-26.142;27.992;2022-12-10T19:44:36;18.37;;;16.70;;
26478;SDS011;14163;-26.142;27.992;2022-12-10T19:47:07;18.93;;;17.33;;
26478;SDS011;14163;-26.142;27.992;2022-12-10T19:49:43;18.70;;;17.00;;
26478;SDS011;14163;-26.142;27.992;2022-12-10T19:52:13;18.53;;;16.73;;
26478;SDS011;14163;-26.142;27.992;2022-12-10T19:54:43;18.07;;;16.47;;
26478;SDS011;14163;-26.142;27.992;2022-12-10T19:57:12;17.70;;;15.97;;
26478;SDS011;14163;-26.142;27.992;2022-12-10T19:59:41;18.63;;;16.80;;
26478;SDS011;14163;-26.142;27.992;2022-12-10T20:02:10;17.23;;;15.73;;
26478;SDS011;14163;-26.142;27.992;2022-12-10T20:04:40;16.77;;;15.17;;
26478;SDS011;14163;-26.142;27.992;2022-12-10T22:07:15;26.50;;;23.80;;
26478;SDS011;14163;-26.142;27.992;2022-12-10T22:09:45;25.40;;;22.90;;
26478;SDS011;14163;-26.142;27.992;2022-12-10T22:12:14;26.03;;;23.43;;
26478;SDS011;14163;-26.142;27.992;2022-12-10T22:14:43;24.87;;;22.60;;
26478;SDS011;14163;-26.142;27.992;2022-12-10T22:17:12;24.73;;;22.53;;
26478;SDS011;14163;-26.142;27.992;2022-12-10T22:19:41;25.23;;;22.93;;
26478;SDS011;14163;-26.142;27.992;2022-12-10T22:22:10;25.57;;;23.07;;
26478;SDS011;14163;-26.142;27.992;2022-12-10T22:24:41;24.50;;;21.90;;
26478;SDS011;14163;-26.142;27.992;2022-12-10T22:27:11;24.83;;;22.63;;
26478;SDS011;14163;-26.142;27.992;2022-12-10T22:29:40;22.60;;;20.50;;
26478;SDS011;14163;-26.142;27.992;2022-12-10T22:32:09;23.03;;;20.83;;
26478;SDS011;14163;-26.142;27.992;2022-12-10T22:34:38;24.10;;;21.80;;
26478;SDS011;14163;-26.142;27.992;2022-12-10T22:37:07;25.40;;;23.00;;
26478;SDS011;14163;-26.142;27.992;2022-12-10T22:39:36;24.67;;;22.20;;
26478;SDS011;14163;-26.142;27.992;2022-12-10T22:42:07;24.90;;;22.47;;
26478;SDS011;14163;-26.142;27.992;2022-12-10T22:44:37;24.13;;;21.63;;
26478;SDS011;14163;-26.142;27.992;2022-12-10T22:47:06;25.67;;;22.97;;
26478;SDS011;14163;-26.142;27.992;2022-12-10T22:49:35;25.23;;;22.83;;
26478;SDS011;14163;-26.142;27.992;2022-12-10T22:52:04;24.33;;;22.10;;
26478;SDS011;14163;-26.142;27.992;2022-12-10T22:54:33;24.70;;;22.50;;
26478;SDS011;14163;-26.142;27.992;2022-12-10T22:57:02;23.90;;;21.67;;
26478;SDS011;14163;-26.142;27.992;2022-12-10T22:59:33;24.80;;;22.50;;
26478;SDS011;14163;-26.142;27.992;2022-12-10T23:02:02;23.57;;;21.40;;
26478;SDS011;14163;-26.142;27.992;2022-12-10T23:04:32;24.37;;;21.97;;
26478;SDS011;14163;-26.142;27.992;2022-12-10T23:07:01;23.40;;;21.30;;
26478;SDS011;14163;-26.142;27.992;2022-12-10T23:09:30;24.10;;;21.87;;
26478;SDS011;14163;-26.142;27.992;2022-12-10T23:11:59;23.73;;;21.53;;
26478;SDS011;14163;-26.142;27.992;2022-12-10T23:14:46;23.20;;;21.30;;
26478;SDS011;14163;-26.142;27.992;2022-12-10T23:17:15;24.93;;;22.60;;
26478;SDS011;14163;-26.142;27.992;2022-12-10T23:19:44;23.63;;;21.40;;
26478;SDS011;14163;-26.142;27.992;2022-12-10T23:22:14;24.47;;;21.90;;